Time;durP1;ratioP1;P1;durP2;ratioP2;P2;SDS_P1;SDS_P2;PMS_P1;PMS_P2;Temp;Humidity;BMP_temperature;BMP_pressure;BME280_temperature;BME280_humidity;BME280_pressure;Samples;Min_cycle;Max_cycle;Signal;HPM_P1;HPM_P2
2022/05/14 00:01:36;;;;;;;25.70;4.82;;;11.30;99.90;;;;;;4999440;28;20030;-95
2022/05/14 00:04:09;;;;;;;38.88;7.43;;;11.30;99.90;;;;;;4998991;28;20030;-95
2022/05/14 00:06:35;;;;;;;25.15;4.85;;;11.40;99.90;;;;;;4993371;28;20042;-94
2022/05/14 00:09:05;;;;;;;26.30;5.22;;;11.40;99.90;;;;;;4974554;28;20031;-94
2022/05/14 00:14:21;;;;;;;39.30;5.70;;;11.40;99.90;;;;;;4982870;28;20049;-95
2022/05/14 00:16:47;;;;;;;35.85;6.60;;;11.40;99.90;;;;;;4968943;28;20034;-94
2022/05/14 00:19:14;;;;;;;39.40;6.28;;;11.40;99.90;;;;;;4979917;28;20027;-93
2022/05/14 00:21:40;;;;;;;31.35;5.05;;;11.50;99.90;;;;;;4986219;28;20029;-94
2022/05/14 00:24:06;;;;;;;34.42;6.03;;;11.40;99.90;;;;;;4985971;28;20038;-94
2022/05/14 00:26:35;;;;;;;29.48;6.10;;;11.40;99.90;;;;;;4986489;28;20043;-94
2022/05/14 00:29:01;;;;;;;28.30;6.28;;;11.50;99.90;;;;;;4984728;28;20038;-94
2022/05/14 00:31:27;;;;;;;30.15;5.82;;;11.50;99.90;;;;;;4985508;28;20027;-94
2022/05/14 00:33:54;;;;;;;25.92;6.05;;;11.50;99.90;;;;;;4985798;28;20047;-95
2022/05/14 00:36:20;;;;;;;24.70;5.70;;;11.40;99.90;;;;;;4984773;28;20030;-94
2022/05/14 00:38:45;;;;;;;37.28;6.10;;;11.50;99.90;;;;;;4986738;28;20027;-94
2022/05/14 00:41:11;;;;;;;26.73;5.18;;;11.40;99.90;;;;;;4986905;28;20038;-95
2022/05/14 00:43:53;;;;;;;29.55;6.45;;;11.40;99.90;;;;;;4989164;28;20023;-95
2022/05/14 00:46:45;;;;;;;25.00;5.50;;;11.40;99.90;;;;;;4988419;28;20043;-95
2022/05/14 00:49:12;;;;;;;33.20;5.10;;;11.40;99.90;;;;;;4986161;28;20023;-95
2022/05/14 00:51:41;;;;;;;27.30;5.38;;;11.30;99.90;;;;;;4988107;28;20030;-95
2022/05/14 00:54:32;;;;;;;31.60;5.90;;;11.30;99.90;;;;;;4988390;28;20030;-95
2022/05/14 00:57:05;;;;;;;35.35;6.85;;;11.30;99.90;;;;;;4989948;28;20030;-94
2022/05/14 00:59:31;;;;;;;41.45;6.20;;;11.30;99.90;;;;;;4991363;28;20150;-94
2022/05/14 01:01:59;;;;;;;22.80;4.88;;;11.20;99.90;;;;;;4992882;28;20070;-94
2022/05/14 01:04:26;;;;;;;25.02;5.22;;;11.30;99.90;;;;;;4989031;28;20087;-94
2022/05/14 01:07:05;;;;;;;28.40;5.40;;;11.30;99.90;;;;;;4992459;28;20053;-95
2022/05/14 01:09:38;;;;;;;24.95;4.70;;;11.20;99.90;;;;;;4993294;28;20023;-94
2022/05/14 01:12:11;;;;;;;23.10;4.72;;;11.20;99.90;;;;;;4977781;28;20042;-93
2022/05/14 01:14:40;;;;;;;23.15;5.40;;;11.20;99.90;;;;;;4977979;28;20058;-95
2022/05/14 01:17:09;;;;;;;25.13;4.28;;;11.20;99.90;;;;;;4994578;28;20054;-94
2022/05/14 01:19:38;;;;;;;28.70;4.70;;;11.20;99.90;;;;;;4977665;28;20098;-94
2022/05/14 01:22:42;;;;;;;27.45;4.70;;;11.10;99.90;;;;;;4995181;28;20057;-94
2022/05/14 01:28:27;;;;;;;29.52;5.45;;;11.10;99.90;;;;;;5000341;28;20022;-93
2022/05/14 01:31:00;;;;;;;27.17;4.70;;;11.00;99.90;;;;;;4966385;28;20039;-95
2022/05/14 01:33:34;;;;;;;15.52;4.53;;;10.90;99.90;;;;;;4995854;28;20073;-95
2022/05/14 01:36:03;;;;;;;32.40;4.75;;;10.90;99.90;;;;;;4978067;28;20035;-94
2022/05/14 01:38:33;;;;;;;26.20;4.82;;;10.90;99.90;;;;;;4993743;28;20039;-94
2022/05/14 01:41:09;;;;;;;22.58;4.32;;;10.80;99.90;;;;;;4995664;28;20038;-95
2022/05/14 01:43:39;;;;;;;19.25;4.75;;;10.80;99.90;;;;;;4991074;28;20035;-94
2022/05/14 01:46:07;;;;;;;21.45;4.10;;;10.80;99.90;;;;;;4996384;28;20075;-92
2022/05/14 01:48:33;;;;;;;29.23;6.32;;;10.70;99.90;;;;;;4982055;28;20027;-94
2022/05/14 01:50:59;;;;;;;23.90;5.47;;;10.70;99.90;;;;;;4964740;28;20029;-93
2022/05/14 01:53:25;;;;;;;25.17;4.97;;;10.70;99.90;;;;;;4998533;28;20042;-93
2022/05/14 01:55:51;;;;;;;20.92;4.70;;;10.70;99.90;;;;;;4994310;28;20054;-95
2022/05/14 02:01:07;;;;;;;27.65;6.65;;;10.60;99.90;;;;;;4988686;28;20054;-94
2022/05/14 02:03:35;;;;;;;16.13;4.70;;;10.60;99.90;;;;;;4989793;28;20123;-94
2022/05/14 02:06:04;;;;;;;23.65;5.35;;;10.60;99.90;;;;;;4993151;28;20043;-93
2022/05/14 02:08:30;;;;;;;19.83;4.95;;;10.60;99.90;;;;;;4990863;28;20027;-94
2022/05/14 02:10:57;;;;;;;24.00;6.30;;;10.50;99.90;;;;;;4976301;28;20041;-94
2022/05/14 02:13:24;;;;;;;15.25;4.20;;;10.50;99.90;;;;;;4991373;28;20058;-93
2022/05/14 02:15:54;;;;;;;22.02;5.82;;;10.50;99.90;;;;;;4992972;28;20034;-94
2022/05/14 02:18:21;;;;;;;22.00;5.25;;;10.50;99.90;;;;;;4994281;28;20030;-94
2022/05/14 02:20:49;;;;;;;25.88;5.55;;;10.50;99.90;;;;;;4993597;28;20046;-94
2022/05/14 02:23:16;;;;;;;29.80;4.88;;;10.40;99.90;;;;;;4993484;28;20022;-94
2022/05/14 02:25:42;;;;;;;26.10;5.13;;;10.40;99.90;;;;;;4992536;28;20039;-94
2022/05/14 02:28:09;;;;;;;26.55;5.00;;;10.40;99.90;;;;;;4990142;28;20027;-93
2022/05/14 02:30:41;;;;;;;18.90;5.10;;;10.40;99.90;;;;;;4988168;28;20086;-93
2022/05/14 02:33:07;;;;;;;22.45;4.75;;;10.30;99.90;;;;;;4991404;28;20054;-94
2022/05/14 02:35:33;;;;;;;30.88;4.80;;;10.20;99.90;;;;;;4993920;28;20034;-93
2022/05/14 02:38:00;;;;;;;29.85;5.55;;;10.20;99.90;;;;;;4994215;28;20030;-93
2022/05/14 02:40:27;;;;;;;14.30;4.50;;;10.20;99.90;;;;;;4994566;28;20026;-94
2022/05/14 02:42:53;;;;;;;18.92;4.35;;;10.20;99.90;;;;;;4996353;28;20101;-93
2022/05/14 02:45:26;;;;;;;18.90;4.18;;;10.10;99.90;;;;;;5008176;28;20023;-95
2022/05/14 02:47:52;;;;;;;24.55;5.07;;;10.10;99.90;;;;;;4990313;28;20397;-94
2022/05/14 02:50:19;;;;;;;23.98;5.70;;;10.20;99.90;;;;;;4990955;28;20038;-94
2022/05/14 02:52:46;;;;;;;28.58;6.20;;;10.10;99.90;;;;;;4993199;28;20046;-93
2022/05/14 02:55:21;;;;;;;27.58;7.10;;;10.00;99.90;;;;;;4994152;28;20015;-94
2022/05/14 02:57:49;;;;;;;28.98;7.40;;;9.90;99.90;;;;;;4993611;28;20042;-95
2022/05/14 03:00:18;;;;;;;24.98;6.28;;;9.80;99.90;;;;;;4991079;28;20095;-93
2022/05/14 03:02:45;;;;;;;19.83;4.32;;;9.80;99.90;;;;;;4974961;28;20027;-92
2022/05/14 03:05:13;;;;;;;22.77;5.80;;;9.70;99.90;;;;;;4985413;28;20034;-94
2022/05/14 03:07:40;;;;;;;30.55;5.95;;;9.70;99.90;;;;;;4983168;28;20023;-94
2022/05/14 03:10:06;;;;;;;22.90;5.28;;;9.70;99.90;;;;;;4983712;28;20062;-94
2022/05/14 03:12:33;;;;;;;19.48;4.65;;;9.70;99.90;;;;;;4990946;28;20452;-94
2022/05/14 03:15:01;;;;;;;25.05;4.63;;;9.80;99.90;;;;;;4995914;28;20053;-94
2022/05/14 03:17:28;;;;;;;18.45;4.35;;;9.80;99.90;;;;;;4996857;28;20137;-93
2022/05/14 03:19:54;;;;;;;15.13;5.03;;;9.80;99.90;;;;;;4994338;28;20054;-93
2022/05/14 03:22:21;;;;;;;26.60;5.32;;;9.80;99.90;;;;;;4993373;28;20055;-93
2022/05/14 03:24:48;;;;;;;21.45;4.70;;;9.90;99.90;;;;;;4979789;28;20030;-92
2022/05/14 03:27:15;;;;;;;25.50;5.60;;;9.90;99.90;;;;;;4995452;28;20046;-93
2022/05/14 03:29:43;;;;;;;22.63;5.20;;;9.80;99.90;;;;;;4996492;28;20058;-92
2022/05/14 03:32:09;;;;;;;31.48;5.90;;;9.80;99.90;;;;;;4980163;28;20026;-94
2022/05/14 03:34:36;;;;;;;19.17;4.55;;;9.80;99.90;;;;;;4992921;28;20481;-94
2022/05/14 03:37:03;;;;;;;33.63;5.65;;;9.90;99.90;;;;;;4993351;28;20051;-92
2022/05/14 03:39:29;;;;;;;27.85;5.22;;;9.90;99.90;;;;;;4987795;28;20037;-95
2022/05/14 03:41:55;;;;;;;19.70;4.55;;;9.90;99.90;;;;;;4990020;28;20027;-91
2022/05/14 03:44:21;;;;;;;22.35;5.90;;;9.90;99.90;;;;;;4996442;28;20034;-93
2022/05/14 03:46:46;;;;;;;36.08;6.55;;;9.90;99.90;;;;;;4995281;28;20034;-92
2022/05/14 03:49:12;;;;;;;29.38;6.10;;;9.90;99.90;;;;;;4991304;28;20027;-94
2022/05/14 03:51:38;;;;;;;31.67;7.35;;;9.80;99.90;;;;;;4986261;28;20038;-94
2022/05/14 03:54:05;;;;;;;15.30;4.60;;;9.80;99.90;;;;;;4988568;28;20039;-94
2022/05/14 03:56:31;;;;;;;30.95;6.72;;;9.70;99.90;;;;;;4990479;28;20027;-94
2022/05/14 03:59:03;;;;;;;23.83;5.63;;;9.70;99.90;;;;;;4993212;28;20031;-93
2022/05/14 04:01:31;;;;;;;31.63;8.88;;;9.70;99.90;;;;;;4993037;28;20031;-93
2022/05/14 04:03:59;;;;;;;20.23;5.60;;;9.70;99.90;;;;;;4992768;28;20058;-91
2022/05/14 04:06:25;;;;;;;25.10;6.55;;;9.70;99.90;;;;;;4993011;28;20047;-94
2022/05/14 04:08:51;;;;;;;23.35;5.78;;;9.70;99.90;;;;;;4992132;28;20073;-94
2022/05/14 04:11:19;;;;;;;26.77;7.70;;;9.70;99.90;;;;;;4990898;28;20034;-93
2022/05/14 04:13:46;;;;;;;22.25;5.20;;;9.70;99.90;;;;;;4991806;28;20014;-94
2022/05/14 04:16:12;;;;;;;25.30;5.40;;;9.70;99.90;;;;;;4991924;28;20081;-94
2022/05/14 04:18:39;;;;;;;21.75;5.55;;;9.70;99.90;;;;;;4976537;28;20038;-94
2022/05/14 04:21:05;;;;;;;25.10;5.85;;;9.80;99.90;;;;;;4992867;28;20102;-94
2022/05/14 04:23:34;;;;;;;25.25;6.38;;;9.90;99.90;;;;;;4993155;28;20121;-93
2022/05/14 04:26:00;;;;;;;27.35;6.88;;;9.90;99.90;;;;;;4997363;28;20103;-91
2022/05/14 04:28:29;;;;;;;18.52;5.50;;;9.90;99.90;;;;;;4991496;28;20022;-94
2022/05/14 04:30:57;;;;;;;20.88;4.72;;;9.90;99.90;;;;;;4984821;28;20015;-93
2022/05/14 04:33:25;;;;;;;27.55;6.55;;;9.80;99.90;;;;;;4986091;28;20054;-94
2022/05/14 04:35:51;;;;;;;29.10;7.55;;;9.80;99.90;;;;;;5003399;28;20065;-91
2022/05/14 04:38:16;;;;;;;29.58;9.07;;;9.80;99.90;;;;;;5019692;28;20035;-93
2022/05/14 04:40:42;;;;;;;26.27;5.82;;;9.80;99.90;;;;;;5018813;28;20038;-92
2022/05/14 04:43:11;;;;;;;23.85;5.75;;;9.70;99.90;;;;;;5008376;28;20027;-91
2022/05/14 04:45:39;;;;;;;18.15;5.28;;;9.70;99.90;;;;;;4997375;28;20044;-92
2022/05/14 04:48:06;;;;;;;31.83;7.00;;;9.60;99.90;;;;;;5010594;28;20018;-92
2022/05/14 04:50:33;;;;;;;23.02;6.75;;;9.60;99.90;;;;;;5010664;28;20076;-92
2022/05/14 04:53:02;;;;;;;28.27;6.38;;;9.50;99.90;;;;;;5011130;28;20027;-94
2022/05/14 04:55:29;;;;;;;29.73;7.20;;;9.50;99.90;;;;;;5015563;28;20054;-94
2022/05/14 04:57:59;;;;;;;18.00;5.25;;;9.50;99.90;;;;;;4993288;28;20383;-93
2022/05/14 05:00:28;;;;;;;29.08;7.65;;;9.40;99.90;;;;;;4994575;28;20051;-94
2022/05/14 05:05:42;;;;;;;29.13;7.75;;;9.50;99.90;;;;;;5011336;28;20073;-94
2022/05/14 05:08:10;;;;;;;30.05;7.90;;;9.50;99.90;;;;;;4999511;28;19998;-95
2022/05/14 05:11:08;;;;;;;35.55;8.23;;;9.50;99.90;;;;;;4985261;28;20094;-93
2022/05/14 05:13:42;;;;;;;29.13;7.13;;;9.50;99.90;;;;;;5005740;28;20031;-94
2022/05/14 05:16:22;;;;;;;25.58;6.45;;;9.40;99.90;;;;;;4982605;28;20090;-94
2022/05/14 05:18:56;;;;;;;26.20;7.13;;;9.30;99.90;;;;;;4998596;28;20090;-94
2022/05/14 05:21:46;;;;;;;27.13;7.28;;;9.30;99.90;;;;;;5009742;28;20030;-92
2022/05/14 05:25:07;;;;;;;25.52;8.68;;;9.30;99.90;;;;;;5016774;28;20022;-94
2022/05/14 05:27:52;;;;;;;29.75;7.65;;;9.30;99.90;;;;;;5018089;28;20066;-94
2022/05/14 05:30:30;;;;;;;27.60;8.02;;;9.30;99.90;;;;;;4998986;28;20022;-93
2022/05/14 05:33:24;;;;;;;17.75;6.53;;;9.40;99.90;;;;;;4998833;28;20035;-96
2022/05/14 05:36:30;;;;;;;31.70;9.15;;;9.40;99.90;;;;;;4997773;28;20056;-94
2022/05/14 05:39:11;;;;;;;26.27;7.32;;;9.50;99.90;;;;;;4958335;28;20027;-93
2022/05/14 05:42:45;;;;;;;20.90;5.55;;;9.60;99.90;;;;;;4995553;28;20030;-93
2022/05/14 05:45:21;;;;;;;27.00;6.53;;;9.60;99.90;;;;;;4998086;28;20054;-95
2022/05/14 05:47:52;;;;;;;34.50;8.57;;;9.60;99.90;;;;;;4975816;28;20062;-94
2022/05/14 05:57:04;;;;;;;25.50;6.32;;;9.80;99.90;;;;;;5003582;28;20056;-92
2022/05/14 05:59:38;;;;;;;15.82;4.65;;;9.90;99.90;;;;;;5009780;28;20045;-93
2022/05/14 06:02:14;;;;;;;13.73;5.13;;;10.10;99.90;;;;;;4989464;28;20025;-93
2022/05/14 06:04:59;;;;;;;20.02;5.20;;;10.20;99.90;;;;;;5016739;28;20078;-93
2022/05/14 06:07:29;;;;;;;19.25;4.60;;;10.40;99.90;;;;;;4993292;28;20049;-94
2022/05/14 06:09:56;;;;;;;16.80;4.68;;;10.60;99.90;;;;;;4982879;28;20023;-94
2022/05/14 06:12:29;;;;;;;16.33;4.78;;;10.70;99.90;;;;;;5019376;28;20083;-93
2022/05/14 06:15:06;;;;;;;17.20;4.82;;;10.90;99.90;;;;;;4989815;28;20131;-93
2022/05/14 06:17:39;;;;;;;22.05;5.78;;;11.00;99.90;;;;;;5023030;28;20039;-93
2022/05/14 06:20:09;;;;;;;29.58;6.00;;;11.10;99.90;;;;;;4998690;28;20038;-93
2022/05/14 06:22:35;;;;;;;31.67;6.78;;;11.30;99.90;;;;;;4997339;28;20029;-92
2022/05/14 06:25:03;;;;;;;26.40;6.68;;;11.30;99.90;;;;;;4999401;28;20056;-95
2022/05/14 06:27:29;;;;;;;19.80;5.18;;;11.40;99.90;;;;;;5000396;28;20018;-93
2022/05/14 06:29:55;;;;;;;26.30;6.65;;;11.50;99.90;;;;;;5017666;28;20038;-94
2022/05/14 06:32:21;;;;;;;25.73;5.65;;;11.60;99.90;;;;;;4985108;28;20041;-93
2022/05/14 06:34:48;;;;;;;26.17;6.38;;;11.70;99.90;;;;;;5029280;28;20043;-95
2022/05/14 06:37:15;;;;;;;27.48;6.22;;;11.80;99.90;;;;;;4982834;28;20042;-93
2022/05/14 06:39:42;;;;;;;24.58;5.90;;;11.80;99.90;;;;;;4998733;28;20121;-92
2022/05/14 06:42:11;;;;;;;31.75;6.38;;;11.90;99.90;;;;;;4979055;28;20475;-92
2022/05/14 06:44:38;;;;;;;29.67;6.13;;;12.10;99.90;;;;;;4995173;28;20245;-94
2022/05/14 06:47:04;;;;;;;34.83;7.00;;;12.20;99.90;;;;;;5013200;28;20045;-93
2022/05/14 06:49:32;;;;;;;34.95;7.68;;;12.40;99.90;;;;;;4990872;28;20225;-92
2022/05/14 06:52:00;;;;;;;37.42;7.75;;;12.50;99.90;;;;;;4988456;28;20026;-93
2022/05/14 06:54:30;;;;;;;39.13;6.70;;;12.50;99.90;;;;;;4987133;28;20018;-92
2022/05/14 06:56:56;;;;;;;28.38;5.88;;;12.60;99.90;;;;;;5002020;28;20540;-91
2022/05/14 06:59:21;;;;;;;26.75;5.88;;;12.70;99.90;;;;;;4986951;28;20052;-92
2022/05/14 07:01:48;;;;;;;28.52;4.95;;;12.70;99.90;;;;;;5010995;28;20022;-93
2022/05/14 07:07:05;;;;;;;24.05;5.15;;;12.90;99.90;;;;;;5012187;28;20036;-92
2022/05/14 07:09:32;;;;;;;32.72;5.63;;;13.00;99.90;;;;;;4988437;28;20041;-91
2022/05/14 07:12:03;;;;;;;37.20;5.68;;;13.00;99.90;;;;;;4990258;28;20456;-93
2022/05/14 07:14:31;;;;;;;38.53;6.90;;;13.00;99.90;;;;;;5004145;28;20172;-93
2022/05/14 07:16:59;;;;;;;33.20;5.65;;;13.00;99.90;;;;;;5009988;28;20006;-92
2022/05/14 07:19:26;;;;;;;32.00;6.22;;;13.00;99.90;;;;;;5008040;28;20029;-92
2022/05/14 07:21:53;;;;;;;29.83;6.00;;;13.10;99.90;;;;;;4980015;28;20045;-92
2022/05/14 07:24:21;;;;;;;37.20;7.85;;;13.20;99.90;;;;;;4977388;28;20603;-93
2022/05/14 07:26:50;;;;;;;28.23;6.80;;;13.30;99.90;;;;;;4978441;28;20145;-93
2022/05/14 07:29:20;;;;;;;26.75;5.75;;;13.30;99.90;;;;;;4981065;28;20055;-94
2022/05/14 07:31:47;;;;;;;29.40;6.00;;;13.40;99.90;;;;;;4985862;28;20058;-91
2022/05/14 07:34:20;;;;;;;32.63;5.95;;;13.50;99.90;;;;;;4975089;28;20037;-92
2022/05/14 07:37:04;;;;;;;36.03;7.35;;;13.50;99.90;;;;;;4958418;28;20035;-93
2022/05/14 07:39:36;;;;;;;31.55;5.82;;;13.60;99.90;;;;;;4969541;28;20027;-92
2022/05/14 07:42:06;;;;;;;28.77;6.00;;;13.70;99.90;;;;;;4975602;28;20019;-91
2022/05/14 07:44:36;;;;;;;35.53;6.03;;;13.70;99.90;;;;;;4974936;28;20113;-91
2022/05/14 07:47:03;;;;;;;28.63;5.82;;;13.80;99.90;;;;;;4959649;28;20066;-93
2022/05/14 07:49:29;;;;;;;36.05;6.00;;;13.80;99.90;;;;;;4982470;28;20054;-92
2022/05/14 07:51:56;;;;;;;26.90;5.85;;;13.90;99.90;;;;;;4979211;28;20484;-92
2022/05/14 07:54:23;;;;;;;32.33;5.70;;;13.80;99.90;;;;;;4975292;28;20063;-92
2022/05/14 07:56:49;;;;;;;36.05;5.43;;;13.80;99.90;;;;;;4960573;28;20037;-90
2022/05/14 07:59:15;;;;;;;26.35;5.38;;;13.90;99.90;;;;;;4980059;28;20448;-90
2022/05/14 08:01:42;;;;;;;26.98;5.32;;;13.90;99.90;;;;;;4971502;28;20023;-92
2022/05/14 08:04:09;;;;;;;33.65;5.80;;;13.90;99.90;;;;;;4974725;28;20034;-89
2022/05/14 08:06:36;;;;;;;37.58;6.07;;;14.00;99.90;;;;;;4975160;28;20133;-90
2022/05/14 08:09:03;;;;;;;30.00;5.65;;;14.00;99.90;;;;;;4972203;28;20019;-93
2022/05/14 08:11:29;;;;;;;33.47;5.05;;;14.10;99.90;;;;;;4965958;28;20127;-90
2022/05/14 08:13:54;;;;;;;26.48;5.85;;;14.10;99.90;;;;;;4982430;28;20047;-89
2022/05/14 08:16:24;;;;;;;36.00;4.65;;;14.10;99.90;;;;;;4965282;28;20039;-91
2022/05/14 08:18:50;;;;;;;33.50;4.95;;;14.20;99.90;;;;;;4965943;28;20089;-90
2022/05/14 08:26:49;;;;;;;31.83;5.15;;;14.50;99.90;;;;;;4979857;28;20045;-91
2022/05/14 08:29:14;;;;;;;32.03;5.43;;;14.50;99.90;;;;;;4964018;28;20473;-92
2022/05/14 08:31:40;;;;;;;33.05;4.60;;;14.70;99.90;;;;;;4962223;28;20146;-91
2022/05/14 08:34:06;;;;;;;20.38;4.75;;;14.70;99.90;;;;;;4980458;28;20030;-90
2022/05/14 08:36:32;;;;;;;26.70;4.55;;;14.90;99.90;;;;;;4982015;28;20101;-90
2022/05/14 08:38:58;;;;;;;24.98;4.43;;;15.00;99.90;;;;;;4967166;28;20082;-91
2022/05/14 08:41:24;;;;;;;32.30;6.22;;;15.10;99.90;;;;;;4965212;28;20030;-90
2022/05/14 08:43:59;;;;;;;26.75;4.70;;;15.10;99.90;;;;;;4981302;28;20038;-92
2022/05/14 08:46:26;;;;;;;20.48;4.82;;;15.10;99.90;;;;;;4964043;28;20452;-90
2022/05/14 08:48:59;;;;;;;35.28;5.50;;;15.10;99.90;;;;;;4967633;28;20034;-91
2022/05/14 08:51:32;;;;;;;30.75;4.93;;;15.20;99.90;;;;;;4965596;28;20041;-91
2022/05/14 08:53:59;;;;;;;29.67;5.72;;;15.30;99.90;;;;;;4967271;28;20042;-90
2022/05/14 08:56:36;;;;;;;24.42;5.40;;;15.50;99.90;;;;;;4964679;28;20038;-91
2022/05/14 08:59:38;;;;;;;27.27;5.05;;;15.60;99.90;;;;;;4966471;28;20031;-91
2022/05/14 09:02:14;;;;;;;28.20;5.35;;;15.70;99.90;;;;;;4966416;28;20027;-90
2022/05/14 09:04:40;;;;;;;33.28;6.22;;;15.80;99.90;;;;;;4993644;28;20006;-88
2022/05/14 09:07:06;;;;;;;34.70;5.45;;;15.90;99.90;;;;;;4981885;28;20099;-91
2022/05/14 09:09:32;;;;;;;31.75;5.80;;;15.90;99.90;;;;;;4997503;28;20026;-92
2022/05/14 09:12:03;;;;;;;30.75;6.65;;;15.90;99.90;;;;;;4956445;28;20400;-90
2022/05/14 09:14:35;;;;;;;28.45;5.68;;;16.00;99.90;;;;;;4964991;28;20027;-91
2022/05/14 09:17:20;;;;;;;32.22;5.93;;;16.10;99.90;;;;;;4936710;28;20028;-90
2022/05/14 09:19:50;;;;;;;33.15;6.45;;;16.10;99.90;;;;;;4963688;28;20484;-91
2022/05/14 09:22:22;;;;;;;26.75;5.22;;;16.30;99.90;;;;;;4966880;28;20050;-91
2022/05/14 09:25:02;;;;;;;20.65;4.70;;;16.40;99.90;;;;;;4971553;28;20035;-89
2022/05/14 09:27:32;;;;;;;20.38;5.18;;;16.50;99.90;;;;;;4964497;28;20031;-90
2022/05/14 09:30:04;;;;;;;21.13;5.05;;;16.60;99.90;;;;;;4979236;28;20030;-92
2022/05/14 09:32:42;;;;;;;20.80;5.10;;;16.70;99.90;;;;;;4974837;28;20019;-91
2022/05/14 09:35:07;;;;;;;20.77;4.50;;;16.90;99.40;;;;;;4964754;28;20139;-91
2022/05/14 09:37:33;;;;;;;16.25;4.28;;;16.90;98.60;;;;;;4978596;28;20027;-91
2022/05/14 09:40:00;;;;;;;25.42;4.80;;;17.00;97.30;;;;;;4966513;28;20019;-92
2022/05/14 09:42:32;;;;;;;24.33;5.20;;;17.00;96.50;;;;;;4972094;28;20110;-91
2022/05/14 09:44:58;;;;;;;21.00;3.75;;;17.00;95.70;;;;;;4979215;28;20015;-90
2022/05/14 09:47:27;;;;;;;18.27;4.45;;;17.10;95.00;;;;;;4974173;28;20031;-93
2022/05/14 09:49:59;;;;;;;21.27;5.30;;;17.10;94.80;;;;;;4963140;28;20022;-92
2022/05/14 09:52:34;;;;;;;20.45;4.82;;;17.20;94.80;;;;;;4963632;28;20041;-91
2022/05/14 09:55:03;;;;;;;26.30;4.68;;;17.20;94.50;;;;;;4963140;28;20031;-90
2022/05/14 09:57:52;;;;;;;21.05;4.25;;;17.30;94.40;;;;;;4987358;28;20030;-93
2022/05/14 10:00:27;;;;;;;26.65;5.90;;;17.40;93.80;;;;;;4974168;28;20389;-92
2022/05/14 10:03:20;;;;;;;22.40;4.45;;;17.40;93.70;;;;;;4992979;28;20138;-91
2022/05/14 10:06:04;;;;;;;27.77;4.95;;;17.60;93.20;;;;;;4986878;28;20027;-91
2022/05/14 10:08:44;;;;;;;27.83;6.18;;;17.70;93.00;;;;;;4971337;28;20035;-92
2022/05/14 10:11:16;;;;;;;26.77;6.03;;;17.70;92.70;;;;;;4974327;28;20045;-91
2022/05/14 10:14:14;;;;;;;24.60;3.80;;;17.80;92.30;;;;;;4970512;28;20201;-92
2022/05/14 10:17:05;;;;;;;24.90;4.38;;;17.80;91.70;;;;;;4968193;28;20026;-92
2022/05/14 10:19:48;;;;;;;18.83;4.05;;;17.90;91.30;;;;;;4968031;28;20046;-92
2022/05/14 10:22:22;;;;;;;15.82;3.92;;;18.20;91.00;;;;;;4983513;28;20031;-92
2022/05/14 10:28:21;;;;;;;20.52;5.20;;;18.40;88.50;;;;;;4978939;28;20050;-91
2022/05/14 10:31:08;;;;;;;18.35;4.20;;;18.60;86.90;;;;;;4960975;28;20388;-92
2022/05/14 10:33:34;;;;;;;27.80;4.95;;;18.80;85.10;;;;;;4977575;28;20075;-92
2022/05/14 10:36:29;;;;;;;23.25;4.47;;;18.90;84.80;;;;;;4994569;28;20093;-92
2022/05/14 10:39:01;;;;;;;29.73;4.57;;;19.20;83.90;;;;;;4980171;28;20056;-92
2022/05/14 10:41:37;;;;;;;18.02;4.85;;;19.50;82.90;;;;;;4977081;28;20057;-91
2022/05/14 10:44:09;;;;;;;24.33;4.82;;;19.70;81.70;;;;;;4959755;28;20178;-92
2022/05/14 10:46:38;;;;;;;23.40;5.70;;;19.90;80.70;;;;;;4960730;28;20189;-92
2022/05/14 10:49:17;;;;;;;26.85;5.70;;;20.10;80.50;;;;;;4962564;28;20030;-93
2022/05/14 10:51:45;;;;;;;30.40;5.60;;;20.30;79.70;;;;;;4966895;28;20133;-93
2022/05/14 10:54:20;;;;;;;21.88;4.22;;;20.50;77.80;;;;;;4968100;28;20043;-92
2022/05/14 10:57:03;;;;;;;21.02;4.90;;;20.60;77.00;;;;;;4982751;28;20026;-92
2022/05/14 10:59:40;;;;;;;21.75;5.10;;;20.70;76.00;;;;;;4986612;28;20034;-92
2022/05/14 11:02:32;;;;;;;20.08;4.10;;;20.80;75.60;;;;;;4982242;28;20070;-92
2022/05/14 11:04:59;;;;;;;17.80;4.05;;;20.90;74.80;;;;;;4961004;29;20035;-92
2022/05/14 11:07:34;;;;;;;20.20;4.28;;;21.10;74.80;;;;;;4962407;29;20042;-93
2022/05/14 11:10:29;;;;;;;20.33;4.05;;;21.30;74.40;;;;;;4969066;28;20476;-92
2022/05/14 11:12:56;;;;;;;23.10;5.03;;;21.50;73.60;;;;;;4968102;28;20121;-92
2022/05/14 11:15:30;;;;;;;20.13;4.38;;;21.80;72.70;;;;;;4981762;28;20033;-92
2022/05/14 11:18:08;;;;;;;18.70;3.95;;;21.90;72.20;;;;;;4986625;28;20098;-93
2022/05/14 11:20:35;;;;;;;28.92;5.57;;;21.90;71.80;;;;;;4984302;28;20115;-92
2022/05/14 11:23:08;;;;;;;16.92;3.88;;;22.10;72.20;;;;;;4979608;28;20027;-92
2022/05/14 11:25:33;;;;;;;18.20;3.97;;;22.10;70.10;;;;;;4996477;28;20038;-92
2022/05/14 11:28:11;;;;;;;16.30;3.92;;;22.20;68.90;;;;;;4996517;28;20120;-92
2022/05/14 11:30:42;;;;;;;21.55;3.70;;;22.20;67.20;;;;;;4966181;28;20042;-91
2022/05/14 11:33:37;;;;;;;;;;;22.10;66.30;;;;;;4962707;28;20035;-92
2022/05/14 11:36:12;;;;;;;11.65;3.58;;;22.20;66.90;;;;;;4966688;28;19918;-92
2022/05/14 11:38:41;;;;;;;21.95;4.93;;;22.30;66.80;;;;;;4982954;28;20019;-93
2022/05/14 11:41:08;;;;;;;17.35;4.30;;;22.60;67.00;;;;;;4985131;28;20109;-92
2022/05/14 11:43:42;;;;;;;16.13;4.13;;;22.80;66.70;;;;;;4984795;28;20045;-93
2022/05/14 11:46:41;;;;;;;25.83;4.65;;;22.90;66.30;;;;;;4983432;28;20125;-92
2022/05/14 11:49:07;;;;;;;17.67;4.00;;;23.00;65.20;;;;;;4982420;28;20043;-93
2022/05/14 11:52:02;;;;;;;19.48;4.50;;;23.10;64.90;;;;;;4982183;28;20062;-92
2022/05/14 11:54:52;;;;;;;17.42;3.20;;;23.30;64.10;;;;;;4980276;28;20209;-91
2022/05/14 11:57:34;;;;;;;35.33;4.70;;;23.60;63.30;;;;;;4979486;28;20074;-92
2022/05/14 12:00:12;;;;;;;22.00;4.53;;;23.90;62.70;;;;;;4980802;28;20027;-93
2022/05/14 12:02:48;;;;;;;16.27;3.83;;;24.10;62.00;;;;;;4982307;28;20061;-92
2022/05/14 12:05:24;;;;;;;17.45;4.18;;;24.20;61.50;;;;;;4982731;28;20039;-92
2022/05/14 12:08:29;;;;;;;14.38;3.20;;;24.30;61.00;;;;;;4964632;29;20038;-92
2022/05/14 12:11:19;;;;;;;20.60;3.40;;;24.50;60.00;;;;;;4967290;29;20024;-92
2022/05/14 12:13:59;;;;;;;14.75;4.00;;;24.50;58.70;;;;;;4966824;29;20020;-93
2022/05/14 12:16:34;;;;;;;16.40;4.53;;;24.60;59.20;;;;;;4964516;28;20027;-93
2022/05/14 12:19:01;;;;;;;26.80;4.25;;;24.60;58.50;;;;;;4963095;29;20105;-92
2022/05/14 12:21:28;;;;;;;16.10;4.05;;;24.60;58.90;;;;;;4966205;29;20031;-93
2022/05/14 12:23:54;;;;;;;13.70;3.97;;;24.70;59.00;;;;;;4967156;29;20035;-92
2022/05/14 12:26:27;;;;;;;15.68;3.97;;;24.80;58.70;;;;;;4966642;29;20126;-92
2022/05/14 12:28:56;;;;;;;17.08;3.15;;;24.90;57.80;;;;;;4968239;28;20058;-93
2022/05/14 12:34:15;;;;;;;14.85;4.00;;;25.00;56.70;;;;;;4968867;29;20026;-92
2022/05/14 12:36:52;;;;;;;20.50;3.40;;;25.10;56.50;;;;;;4967148;29;20051;-93
2022/05/14 12:39:27;;;;;;;15.57;3.88;;;25.10;56.30;;;;;;4967790;28;20079;-92
2022/05/14 12:42:05;;;;;;;13.55;3.45;;;25.20;56.40;;;;;;4966935;28;20027;-92
2022/05/14 12:44:44;;;;;;;14.50;2.92;;;25.30;56.50;;;;;;4966466;29;20039;-90
2022/05/14 12:47:11;;;;;;;20.67;3.33;;;25.30;56.20;;;;;;4967963;29;20054;-94
2022/05/14 12:49:42;;;;;;;10.68;3.45;;;25.40;55.80;;;;;;4967908;28;20027;-91
2022/05/14 12:52:11;;;;;;;10.88;3.42;;;25.60;55.40;;;;;;4983773;28;20029;-92
2022/05/14 12:54:49;;;;;;;11.93;3.25;;;25.80;55.00;;;;;;4985245;28;20053;-95
2022/05/14 12:57:16;;;;;;;13.18;3.38;;;26.00;54.40;;;;;;4969223;28;20035;-92
2022/05/14 12:59:43;;;;;;;13.07;3.72;;;26.00;54.30;;;;;;4987704;28;20086;-93
2022/05/14 13:02:22;;;;;;;14.35;3.53;;;26.10;54.30;;;;;;4986940;28;20081;-93
2022/05/14 13:04:57;;;;;;;12.75;3.30;;;26.30;53.80;;;;;;4987101;28;20027;-92
2022/05/14 13:07:24;;;;;;;13.13;3.28;;;26.30;53.60;;;;;;4987278;28;20031;-93
2022/05/14 13:09:51;;;;;;;9.07;3.10;;;26.40;53.50;;;;;;4990323;28;20038;-93
2022/05/14 13:12:21;;;;;;;12.02;3.10;;;26.30;53.80;;;;;;4987319;28;20062;-92
2022/05/14 13:15:00;;;;;;;10.25;2.90;;;26.40;53.90;;;;;;4983248;28;20030;-92
2022/05/14 13:17:38;;;;;;;9.07;3.30;;;26.50;53.00;;;;;;4982242;28;20030;-91
2022/05/14 13:20:15;;;;;;;9.98;2.72;;;26.40;52.60;;;;;;4985751;28;20023;-93
2022/05/14 13:22:43;;;;;;;18.15;3.80;;;26.50;52.50;;;;;;4982744;28;20027;-93
2022/05/14 13:25:35;;;;;;;17.45;3.55;;;26.50;52.20;;;;;;4985198;28;20039;-92
2022/05/14 13:28:11;;;;;;;12.82;3.10;;;26.60;51.80;;;;;;4983793;28;20097;-93
2022/05/14 13:30:37;;;;;;;7.80;2.58;;;26.70;52.00;;;;;;4983176;28;20035;-94
2022/05/14 13:33:08;;;;;;;9.65;3.05;;;27.00;51.70;;;;;;4984219;28;20061;-93
2022/05/14 13:38:28;;;;;;;19.02;3.40;;;27.10;51.10;;;;;;4996029;28;20040;-93
2022/05/14 13:40:55;;;;;;;10.18;3.20;;;27.20;50.90;;;;;;4997254;28;20050;-94